createdAt,value
2022-10-18T00:00:08.231Z,83.34
2022-10-18T00:02:38.074Z,83.46
2022-10-18T00:05:05.854Z,82.76
2022-10-18T00:07:33.083Z,83.85
2022-10-18T00:10:00.282Z,84.50
2022-10-18T00:12:27.105Z,83.83
2022-10-18T00:14:53.960Z,84.64
2022-10-18T00:17:20.838Z,85.07
2022-10-18T00:19:47.642Z,84.92
2022-10-18T00:22:14.543Z,85.66
2022-10-18T00:24:41.406Z,85.34
2022-10-18T00:27:08.464Z,85.16
2022-10-18T00:29:36.217Z,84.77
2022-10-18T00:32:03.163Z,85.56
2022-10-18T00:34:29.963Z,83.91
2022-10-18T00:36:56.815Z,84.76
2022-10-18T00:39:23.555Z,84.91
2022-10-18T00:41:50.834Z,85.09
2022-10-18T00:44:17.652Z,84.84
2022-10-18T00:46:47.421Z,84.48
2022-10-18T00:49:53.326Z,84.29
2022-10-18T00:52:25.867Z,85.34
2022-10-18T00:54:55.019Z,86.13
2022-10-18T00:57:23.372Z,86.48
2022-10-18T00:59:50.597Z,85.79
2022-10-18T01:02:18.541Z,87.06
2022-10-18T01:04:47.235Z,86.60
2022-10-18T01:07:26.678Z,86.03
2022-10-18T01:10:30.088Z,85.97
2022-10-18T01:13:14.547Z,85.28
2022-10-18T01:15:45.785Z,85.31
2022-10-18T01:18:25.880Z,86.23
2022-10-18T01:21:01.768Z,86.08
2022-10-18T01:23:37.396Z,86.77
2022-10-18T01:26:29.964Z,86.10
2022-10-18T01:29:28.890Z,85.89
2022-10-18T01:32:10.382Z,85.79
2022-10-18T01:34:40.301Z,86.80
2022-10-18T01:37:12.280Z,86.35
2022-10-18T01:39:42.684Z,86.18
2022-10-18T01:42:12.409Z,85.79
2022-10-18T01:44:41.900Z,85.25
2022-10-18T01:47:12.452Z,85.32
2022-10-18T01:49:39.406Z,85.04
2022-10-18T01:54:42.836Z,86.20
2022-10-18T01:57:29.951Z,87.82
2022-10-18T02:00:16.921Z,88.07
2022-10-18T02:02:51.969Z,86.43
2022-10-18T02:05:39.864Z,87.44
2022-10-18T02:08:27.792Z,88.04
2022-10-18T02:11:00.173Z,87.86
2022-10-18T02:13:33.484Z,86.80
2022-10-18T02:16:07.887Z,87.94
2022-10-18T02:18:39.844Z,89.09
2022-10-18T02:21:11.456Z,87.73
2022-10-18T02:23:39.021Z,89.73
2022-10-18T02:26:06.464Z,89.96
2022-10-18T02:28:33.246Z,89.99
2022-10-18T02:31:30.229Z,90.86
2022-10-18T02:34:02.263Z,89.48
2022-10-18T02:36:36.404Z,90.34
2022-10-18T02:39:08.396Z,90.72
2022-10-18T02:41:35.249Z,91.08
2022-10-18T02:44:02.102Z,90.50
2022-10-18T02:46:28.982Z,88.94
2022-10-18T02:48:55.967Z,90.85
2022-10-18T02:51:23.934Z,90.23
2022-10-18T02:53:50.926Z,91.64
2022-10-18T02:56:17.783Z,91.00
2022-10-18T02:58:44.611Z,90.80
2022-10-18T03:01:11.585Z,91.05
2022-10-18T03:03:38.662Z,90.71
2022-10-18T03:06:05.638Z,90.65
2022-10-18T03:08:32.492Z,90.52
2022-10-18T03:10:59.439Z,90.20
2022-10-18T03:13:26.261Z,90.98
2022-10-18T03:15:53.180Z,91.69
2022-10-18T03:18:20.237Z,91.70
2022-10-18T03:20:46.970Z,92.10
2022-10-18T03:23:13.932Z,91.67
2022-10-18T03:25:42.897Z,92.27
2022-10-18T03:28:12.391Z,91.67
2022-10-18T03:30:39.228Z,91.96
2022-10-18T03:33:06.838Z,90.28
2022-10-18T03:35:33.764Z,91.17
2022-10-18T03:38:00.510Z,89.92
2022-10-18T03:40:27.372Z,89.86
2022-10-18T03:42:54.212Z,90.71
2022-10-18T03:45:21.092Z,91.34
2022-10-18T03:47:47.914Z,91.78
2022-10-18T03:50:14.844Z,92.63
2022-10-18T03:52:41.685Z,91.31
2022-10-18T03:55:08.753Z,92.92
2022-10-18T03:57:35.719Z,93.58
2022-10-18T04:00:02.581Z,93.41
2022-10-18T04:02:38.954Z,92.71
2022-10-18T04:05:06.113Z,92.21
2022-10-18T04:07:33.597Z,92.68
2022-10-18T04:10:00.414Z,92.87
2022-10-18T04:12:27.153Z,93.51
2022-10-18T04:14:55.586Z,93.41
2022-10-18T04:17:22.605Z,93.68
2022-10-18T04:19:49.351Z,92.58
2022-10-18T04:22:16.438Z,93.54
2022-10-18T04:24:43.306Z,92.47
2022-10-18T04:27:10.074Z,93.87
2022-10-18T04:29:36.874Z,93.33
2022-10-18T04:32:03.703Z,93.58
2022-10-18T04:34:30.569Z,93.41
2022-10-18T04:36:57.476Z,93.67
2022-10-18T04:39:24.237Z,94.40
2022-10-18T04:41:51.060Z,94.41
2022-10-18T04:44:17.828Z,93.76
2022-10-18T04:46:44.688Z,93.93
2022-10-18T04:49:11.513Z,94.62
2022-10-18T04:51:38.415Z,93.95
2022-10-18T04:54:05.315Z,94.36
2022-10-18T04:56:32.510Z,94.61
2022-10-18T04:58:59.679Z,93.28
2022-10-18T05:01:26.584Z,93.44
2022-10-18T05:03:54.863Z,92.27
2022-10-18T05:06:23.248Z,92.81
2022-10-18T05:08:50.082Z,93.42
2022-10-18T05:11:16.871Z,94.79
2022-10-18T05:13:46.044Z,94.33
2022-10-18T05:16:15.323Z,94.18
2022-10-18T05:18:42.248Z,93.94
2022-10-18T05:21:09.058Z,95.59
2022-10-18T05:23:35.871Z,94.47
2022-10-18T05:26:05.110Z,93.70
2022-10-18T05:28:39.609Z,94.05
2022-10-18T05:31:10.679Z,94.57
2022-10-18T05:33:37.494Z,92.12
2022-10-18T05:36:05.704Z,92.48
2022-10-18T05:38:32.520Z,93.48
2022-10-18T05:40:59.938Z,94.33
2022-10-18T05:43:30.163Z,95.24
2022-10-18T05:45:57.150Z,95.27
2022-10-18T05:48:23.902Z,94.91
2022-10-18T05:50:50.753Z,94.44
2022-10-18T05:53:37.079Z,93.50
2022-10-18T05:56:04.914Z,94.58
2022-10-18T05:58:31.737Z,95.47
2022-10-18T06:01:03.226Z,95.92
2022-10-18T06:03:30.008Z,95.86
2022-10-18T06:06:05.171Z,95.22
2022-10-18T06:08:32.458Z,94.62
2022-10-18T06:10:59.574Z,96.23
2022-10-18T06:13:26.615Z,96.08
2022-10-18T06:15:56.987Z,96.28
2022-10-18T06:18:23.744Z,97.03
2022-10-18T06:20:57.224Z,97.38
2022-10-18T06:23:24.215Z,96.23
2022-10-18T06:25:50.886Z,96.89
2022-10-18T06:28:18.633Z,97.62
2022-10-18T06:30:45.440Z,96.66
2022-10-18T06:33:12.269Z,95.99
2022-10-18T06:35:39.127Z,95.46
2022-10-18T06:38:05.876Z,94.70
2022-10-18T06:40:32.742Z,94.31
2022-10-18T06:43:00.492Z,93.70
2022-10-18T06:45:37.417Z,93.51
2022-10-18T06:48:04.400Z,93.41
2022-10-18T06:50:31.309Z,92.72
2022-10-18T06:52:58.160Z,91.66
2022-10-18T06:55:25.011Z,91.24
2022-10-18T06:57:53.099Z,92.39
2022-10-18T07:00:20.032Z,90.38
2022-10-18T07:02:46.848Z,89.45
2022-10-18T07:05:13.778Z,88.91
2022-10-18T07:07:40.904Z,88.99
2022-10-18T07:10:11.180Z,87.82
2022-10-18T07:12:39.559Z,87.17
2022-10-18T07:15:09.471Z,87.07
2022-10-18T07:17:36.941Z,85.62
2022-10-18T07:20:03.892Z,86.38
2022-10-18T07:22:31.019Z,85.71
2022-10-18T07:24:57.778Z,84.65
2022-10-18T07:27:24.564Z,84.80
2022-10-18T07:29:51.424Z,84.68
2022-10-18T07:32:18.226Z,84.41
2022-10-18T07:34:44.984Z,83.77
2022-10-18T07:37:11.924Z,83.86
2022-10-18T07:39:38.725Z,81.91
2022-10-18T07:42:07.175Z,82.39
2022-10-18T07:44:37.524Z,81.63
2022-10-18T07:47:04.344Z,82.53
2022-10-18T07:49:31.114Z,81.04
2022-10-18T07:51:57.964Z,80.77
2022-10-18T07:54:24.756Z,80.10
2022-10-18T07:56:51.590Z,79.07
2022-10-18T07:59:18.394Z,78.18
2022-10-18T08:01:45.296Z,78.83
2022-10-18T08:04:16.204Z,79.15
2022-10-18T08:06:43.602Z,78.02
2022-10-18T08:09:10.398Z,77.85
2022-10-18T08:11:37.219Z,76.76
2022-10-18T08:14:04.010Z,77.13
2022-10-18T08:19:02.583Z,76.33
2022-10-18T08:21:29.387Z,76.11
2022-10-18T08:23:56.253Z,76.32
2022-10-18T08:26:23.999Z,75.25
2022-10-18T08:29:10.255Z,75.54
2022-10-18T08:31:38.183Z,75.77
2022-10-18T08:34:04.968Z,75.49
2022-10-18T08:36:31.779Z,75.10
2022-10-18T08:38:58.888Z,75.45
2022-10-18T08:41:25.614Z,73.92
2022-10-18T08:44:07.197Z,73.91
2022-10-18T08:46:36.008Z,72.62
2022-10-18T08:49:05.754Z,73.47
2022-10-18T08:51:41.612Z,74.20
2022-10-18T08:54:13.877Z,73.86
2022-10-18T08:56:50.815Z,73.12
2022-10-18T08:59:19.928Z,72.90
2022-10-18T09:02:06.916Z,72.58
2022-10-18T09:04:52.430Z,72.10
2022-10-18T09:07:47.347Z,72.44
2022-10-18T09:10:38.669Z,71.92
2022-10-18T09:13:28.066Z,72.63
2022-10-18T09:16:11.058Z,72.39
2022-10-18T09:19:02.391Z,71.97
2022-10-18T09:21:55.088Z,71.00
2022-10-18T09:24:38.967Z,70.71
2022-10-18T09:27:15.353Z,71.03
2022-10-18T09:29:54.736Z,70.89
2022-10-18T09:32:48.524Z,71.54
2022-10-18T09:35:21.505Z,71.16
2022-10-18T09:37:50.217Z,72.15
2022-10-18T09:40:19.719Z,70.87
2022-10-18T09:42:55.490Z,70.98
2022-10-18T09:45:35.259Z,71.00
2022-10-18T09:48:18.928Z,71.23
2022-10-18T09:50:57.024Z,70.78
2022-10-18T09:53:42.202Z,71.69
2022-10-18T09:56:29.125Z,68.79
2022-10-18T09:58:55.957Z,68.89
2022-10-18T10:01:25.795Z,68.02
2022-10-18T10:03:53.783Z,69.56
2022-10-18T10:06:32.928Z,69.32
2022-10-18T10:09:01.245Z,69.56
2022-10-18T10:11:33.489Z,68.90
2022-10-18T10:14:18.370Z,68.89
2022-10-18T10:17:06.888Z,68.52
2022-10-18T10:19:37.478Z,68.42
2022-10-18T10:22:10.727Z,67.57
2022-10-18T10:24:47.141Z,69.19
2022-10-18T10:27:19.625Z,69.04
2022-10-18T10:29:46.417Z,67.98
2022-10-18T10:32:15.676Z,69.78
2022-10-18T10:34:44.736Z,67.32
2022-10-18T10:37:32.018Z,68.13
2022-10-18T10:40:18.421Z,68.41
2022-10-18T10:43:33.018Z,67.70
2022-10-18T10:46:02.611Z,67.71
2022-10-18T10:48:39.434Z,67.88
2022-10-18T10:51:09.816Z,68.09
2022-10-18T10:53:57.486Z,66.67
2022-10-18T10:56:32.595Z,68.27
2022-10-18T10:59:17.529Z,67.90
2022-10-18T11:01:44.444Z,67.40
2022-10-18T11:04:29.586Z,67.19
2022-10-18T11:07:21.144Z,67.88
2022-10-18T11:09:50.855Z,67.53
2022-10-18T11:12:34.477Z,67.25
2022-10-18T11:15:10.724Z,67.48
2022-10-18T11:18:28.624Z,67.10
2022-10-18T11:21:10.356Z,67.15
2022-10-18T11:23:39.241Z,66.22
2022-10-18T11:26:11.922Z,66.84
2022-10-18T11:29:06.284Z,66.42
2022-10-18T11:31:37.589Z,66.59
2022-10-18T11:34:42.351Z,66.78
2022-10-18T11:37:36.059Z,66.80
2022-10-18T11:40:31.279Z,67.33
2022-10-18T11:43:30.387Z,66.67
2022-10-18T11:46:32.252Z,66.21
2022-10-18T11:49:10.819Z,66.62
2022-10-18T11:52:08.667Z,66.32
2022-10-18T11:55:05.164Z,67.29
2022-10-18T11:57:53.173Z,66.51
2022-10-18T12:03:18.814Z,66.18
2022-10-18T12:05:48.792Z,66.31
2022-10-18T12:08:25.535Z,65.38
2022-10-18T12:11:05.142Z,65.15
2022-10-18T12:13:57.411Z,66.14
2022-10-18T12:16:49.543Z,66.41
2022-10-18T12:19:28.577Z,66.04
2022-10-18T12:21:58.357Z,64.91
2022-10-18T12:24:28.920Z,63.65
2022-10-18T12:27:00.566Z,64.52
2022-10-18T12:29:50.676Z,64.67
2022-10-18T12:32:31.652Z,64.68
2022-10-18T12:35:06.985Z,65.55
2022-10-18T12:38:18.837Z,64.66
2022-10-18T12:40:49.547Z,65.54
2022-10-18T12:43:22.957Z,65.81
2022-10-18T12:46:01.563Z,65.88
2022-10-18T12:49:10.319Z,64.70
2022-10-18T12:52:09.853Z,64.96
2022-10-18T12:54:39.742Z,65.98
2022-10-18T12:57:22.516Z,64.27
2022-10-18T12:59:49.709Z,64.36
2022-10-18T13:02:22.959Z,64.91
2022-10-18T13:04:50.088Z,63.58
2022-10-18T13:07:32.159Z,64.79
2022-10-18T13:10:08.261Z,64.79
2022-10-18T13:12:50.209Z,64.71
2022-10-18T13:15:34.192Z,64.98
2022-10-18T13:18:17.564Z,64.69
2022-10-18T13:21:05.799Z,64.63
2022-10-18T13:23:53.967Z,65.31
2022-10-18T13:26:29.783Z,64.69
2022-10-18T13:29:02.104Z,63.98
2022-10-18T13:31:37.326Z,64.55
2022-10-18T13:34:22.299Z,65.19
2022-10-18T13:37:10.873Z,63.67
2022-10-18T13:39:39.862Z,63.81
2022-10-18T13:42:15.735Z,64.62
2022-10-18T13:44:43.962Z,64.17
2022-10-18T13:47:12.355Z,64.38
2022-10-18T13:49:39.071Z,64.36
2022-10-18T13:52:17.805Z,64.86
2022-10-18T13:54:58.372Z,65.03
2022-10-18T13:57:59.226Z,64.76
2022-10-18T14:00:54.904Z,65.39
2022-10-18T14:06:27.167Z,64.82
2022-10-18T14:09:13.859Z,63.76
2022-10-18T14:12:11.568Z,63.99
2022-10-18T14:14:45.638Z,63.51
2022-10-18T14:17:26.024Z,64.24
2022-10-18T14:20:02.591Z,64.30
2022-10-18T14:22:41.195Z,64.51
2022-10-18T14:25:25.937Z,64.64
2022-10-18T14:28:12.356Z,64.71
2022-10-18T14:30:58.521Z,64.88
2022-10-18T14:33:36.272Z,65.15
2022-10-18T14:36:15.330Z,64.30
2022-10-18T14:38:59.010Z,64.88
2022-10-18T14:41:37.928Z,65.02
2022-10-18T14:44:29.470Z,64.69
2022-10-18T14:47:02.464Z,65.10
2022-10-18T14:49:30.582Z,65.18
2022-10-18T14:52:00.330Z,65.38
2022-10-18T14:54:32.945Z,65.34
2022-10-18T14:57:01.409Z,65.44
2022-10-18T14:59:32.480Z,65.65
2022-10-18T15:02:11.940Z,65.56
2022-10-18T15:04:38.852Z,64.96
2022-10-18T15:07:14.082Z,65.65
2022-10-18T15:09:42.036Z,65.62
2022-10-18T15:12:13.744Z,65.57
2022-10-18T15:14:42.615Z,66.23
2022-10-18T15:17:17.133Z,66.06
2022-10-18T15:20:01.815Z,66.37
2022-10-18T15:22:33.679Z,67.10
2022-10-18T15:25:17.474Z,67.38
2022-10-18T15:27:53.897Z,66.72
2022-10-18T15:30:26.203Z,66.97
2022-10-18T15:32:56.685Z,67.32
2022-10-18T15:35:28.962Z,67.45
2022-10-18T15:37:59.004Z,66.69
2022-10-18T15:40:32.756Z,67.37
2022-10-18T15:43:24.726Z,68.28
2022-10-18T15:45:54.835Z,67.86
2022-10-18T15:48:37.611Z,67.49
2022-10-18T15:51:22.275Z,68.06
2022-10-18T15:53:54.188Z,67.97
2022-10-18T15:56:35.315Z,68.37
2022-10-18T15:59:05.555Z,68.20
2022-10-18T16:01:45.932Z,67.84
2022-10-18T16:04:26.288Z,68.77
2022-10-18T16:06:54.058Z,69.23
2022-10-18T16:09:22.221Z,69.73
2022-10-18T16:11:52.832Z,69.69
2022-10-18T16:14:22.758Z,70.12
2022-10-18T16:16:54.018Z,70.38
2022-10-18T16:19:20.786Z,70.17
2022-10-18T16:21:47.582Z,70.86
2022-10-18T16:24:14.447Z,70.69
2022-10-18T16:26:41.839Z,71.15
2022-10-18T16:29:15.075Z,71.52
2022-10-18T16:31:42.640Z,71.19
2022-10-18T16:34:09.532Z,71.62
2022-10-18T16:36:36.430Z,71.50
2022-10-18T16:39:06.863Z,72.84
2022-10-18T16:41:34.253Z,72.34
2022-10-18T16:44:01.096Z,72.72
2022-10-18T16:46:32.303Z,73.21
2022-10-18T16:49:00.109Z,73.97
2022-10-18T16:51:28.321Z,73.99
2022-10-18T16:53:55.608Z,73.52
2022-10-18T16:56:29.457Z,74.66
2022-10-18T16:58:57.836Z,74.51
2022-10-18T17:01:26.085Z,74.49
2022-10-18T17:03:53.875Z,74.10
2022-10-18T17:06:28.617Z,73.64
2022-10-18T17:08:56.884Z,74.41
2022-10-18T17:11:26.674Z,74.27
2022-10-18T17:13:54.487Z,74.39
2022-10-18T17:16:31.050Z,75.63
2022-10-18T17:19:00.765Z,75.32
2022-10-18T17:21:29.497Z,75.14
2022-10-18T17:23:57.307Z,75.05
2022-10-18T17:26:29.389Z,75.27
2022-10-18T17:29:04.441Z,74.83
2022-10-18T17:31:33.191Z,75.62
2022-10-18T17:34:00.917Z,75.49
2022-10-18T17:36:30.289Z,77.14
2022-10-18T17:38:58.232Z,77.26
2022-10-18T17:41:25.821Z,77.50
2022-10-18T17:43:53.576Z,77.68
2022-10-18T17:46:22.351Z,76.88
2022-10-18T17:48:50.273Z,78.34
2022-10-18T17:51:18.164Z,80.39
2022-10-18T17:53:46.666Z,79.32
2022-10-18T17:56:16.361Z,79.81
2022-10-18T17:58:44.679Z,79.75
2022-10-18T18:01:17.032Z,80.11
2022-10-18T18:03:45.603Z,79.27
2022-10-18T18:06:17.139Z,80.44
2022-10-18T18:08:46.516Z,80.13
2022-10-18T18:11:14.141Z,79.07
2022-10-18T18:13:44.636Z,79.42
2022-10-18T18:16:18.443Z,79.86
2022-10-18T18:18:47.108Z,79.40
2022-10-18T18:21:14.846Z,79.78
2022-10-18T18:23:45.008Z,79.85
2022-10-18T18:26:15.133Z,81.07
2022-10-18T18:28:43.241Z,80.96
2022-10-18T18:31:34.549Z,81.71
2022-10-18T18:34:07.264Z,81.81
2022-10-18T18:36:35.036Z,83.00
2022-10-18T18:39:03.074Z,83.43
2022-10-18T18:41:30.778Z,82.21
2022-10-18T18:44:02.465Z,81.95
2022-10-18T18:46:32.450Z,81.28
2022-10-18T18:49:00.362Z,81.09
2022-10-18T18:51:29.474Z,81.57
2022-10-18T18:53:57.653Z,81.87
2022-10-18T18:56:27.823Z,82.03
2022-10-18T18:58:58.232Z,82.01
2022-10-18T19:01:36.961Z,81.69
2022-10-18T19:04:07.465Z,81.82
2022-10-18T19:06:41.374Z,81.23
2022-10-18T19:09:20.434Z,80.36
2022-10-18T19:11:55.279Z,82.89
2022-10-18T19:14:25.380Z,81.45
2022-10-18T19:16:57.885Z,82.85
2022-10-18T19:19:28.512Z,83.50
2022-10-18T19:21:59.042Z,83.69
2022-10-18T19:24:29.589Z,83.42
2022-10-18T19:27:01.638Z,84.72
2022-10-18T19:29:32.120Z,84.52
2022-10-18T19:32:04.764Z,83.64
2022-10-18T19:34:36.148Z,84.76
2022-10-18T19:37:04.505Z,84.97
2022-10-18T19:39:35.635Z,84.89
2022-10-18T19:42:06.657Z,85.09
2022-10-18T19:44:37.050Z,85.32
2022-10-18T19:47:06.896Z,84.80
2022-10-18T19:49:40.640Z,85.27
2022-10-18T19:52:08.012Z,84.49
2022-10-18T19:54:35.776Z,84.83
2022-10-18T19:57:03.488Z,85.63
2022-10-18T19:59:31.217Z,85.19
2022-10-18T20:01:58.965Z,82.35
2022-10-18T20:04:26.051Z,77.18
2022-10-18T20:06:53.219Z,74.74
2022-10-18T20:09:20.815Z,73.96
2022-10-18T20:11:48.571Z,72.49
2022-10-18T20:14:16.012Z,71.86
2022-10-18T20:16:43.185Z,71.68
2022-10-18T20:19:10.387Z,70.76
2022-10-18T20:21:37.384Z,70.01
2022-10-18T20:24:05.755Z,70.17
2022-10-18T20:26:33.625Z,70.22
2022-10-18T20:29:01.002Z,70.32
2022-10-18T20:31:30.330Z,70.11
2022-10-18T20:34:02.221Z,69.99
2022-10-18T20:36:31.099Z,70.18
2022-10-18T20:38:58.545Z,70.38
2022-10-18T20:41:30.794Z,70.37
2022-10-18T20:44:01.246Z,70.66
2022-10-18T20:46:31.388Z,70.79
2022-10-18T20:48:58.156Z,70.93
2022-10-18T20:51:25.210Z,70.80
2022-10-18T20:53:52.277Z,71.18
2022-10-18T20:56:21.706Z,71.45
2022-10-18T20:58:53.950Z,71.79
2022-10-18T21:01:27.198Z,72.42
2022-10-18T21:03:58.976Z,72.44
2022-10-18T21:06:28.951Z,72.99
2022-10-18T21:08:58.573Z,73.41
2022-10-18T21:11:26.903Z,73.71
2022-10-18T21:14:01.402Z,73.98
2022-10-18T21:16:32.803Z,74.24
2022-10-18T21:19:16.685Z,74.37
2022-10-18T21:21:45.687Z,74.57
2022-10-18T21:24:13.997Z,74.94
2022-10-18T21:26:40.879Z,75.00
2022-10-18T21:29:08.297Z,75.75
2022-10-18T21:31:37.560Z,76.00
2022-10-18T21:34:08.124Z,76.09
2022-10-18T21:36:37.082Z,76.25
2022-10-18T21:39:06.188Z,76.24
2022-10-18T21:41:34.078Z,76.30
2022-10-18T21:44:01.651Z,75.82
2022-10-18T21:46:29.230Z,75.88
2022-10-18T21:48:57.224Z,76.17
2022-10-18T21:51:26.637Z,76.41
2022-10-18T21:53:56.490Z,76.67
2022-10-18T21:56:34.791Z,76.72
2022-10-18T21:59:02.368Z,76.95
2022-10-18T22:01:32.422Z,76.95
2022-10-18T22:04:01.149Z,76.98
2022-10-18T22:06:29.380Z,77.29
2022-10-18T22:09:02.161Z,77.52
2022-10-18T22:11:34.661Z,77.80
2022-10-18T22:14:01.625Z,78.29
2022-10-18T22:16:28.676Z,78.47
2022-10-18T22:19:01.233Z,78.84
2022-10-18T22:21:28.501Z,78.75
2022-10-18T22:23:57.573Z,78.71
2022-10-18T22:26:34.936Z,78.90
2022-10-18T22:29:05.299Z,79.14
2022-10-18T22:31:36.845Z,79.12
2022-10-18T22:34:11.091Z,79.35
2022-10-18T22:36:38.007Z,79.58
2022-10-18T22:39:06.232Z,79.71
2022-10-18T22:41:34.698Z,79.83
2022-10-18T22:44:03.644Z,79.74
2022-10-18T22:46:32.333Z,80.17
2022-10-18T22:48:59.088Z,80.12
2022-10-18T22:51:26.015Z,80.18
2022-10-18T22:53:53.160Z,80.17
2022-10-18T22:56:22.086Z,80.28
2022-10-18T22:58:49.538Z,80.41
2022-10-18T23:01:20.010Z,80.54
2022-10-18T23:03:47.401Z,80.73
2022-10-18T23:06:23.674Z,80.54
2022-10-18T23:08:51.465Z,81.00
2022-10-18T23:11:18.881Z,81.13
2022-10-18T23:13:47.149Z,80.93
2022-10-18T23:16:14.527Z,81.28
2022-10-18T23:18:41.799Z,81.26
2022-10-18T23:21:11.088Z,80.75
2022-10-18T23:23:41.368Z,80.95
2022-10-18T23:26:11.792Z,81.02
2022-10-18T23:28:41.895Z,80.82
2022-10-18T23:31:14.928Z,81.20
2022-10-18T23:33:41.903Z,80.58
2022-10-18T23:36:09.268Z,81.00
2022-10-18T23:38:38.340Z,80.89
2022-10-18T23:41:06.941Z,81.08
2022-10-18T23:43:34.244Z,81.10
2022-10-18T23:46:01.081Z,81.27
2022-10-18T23:48:28.763Z,81.28
2022-10-18T23:50:55.923Z,80.44
2022-10-18T23:53:23.783Z,80.84
2022-10-18T23:55:58.783Z,81.15
2022-10-18T23:58:27.453Z,80.72
